createdAt,value
2018-10-07T00:01:12.794Z,16.30
2018-10-07T00:03:41.216Z,16.30
2018-10-07T00:06:09.294Z,16.30
2018-10-07T00:08:38.042Z,16.20
2018-10-07T00:11:06.688Z,16.20
2018-10-07T00:13:35.472Z,16.10
2018-10-07T00:16:03.900Z,16.10
2018-10-07T00:18:32.680Z,16.00
2018-10-07T00:21:01.478Z,16.00
2018-10-07T00:23:30.271Z,16.00
2018-10-07T00:25:58.726Z,15.90
2018-10-07T00:28:27.182Z,15.90
2018-10-07T00:30:55.570Z,15.90
2018-10-07T00:33:23.646Z,15.80
2018-10-07T00:35:52.478Z,15.80
2018-10-07T00:38:21.302Z,15.80
2018-10-07T00:40:50.066Z,15.70
2018-10-07T00:43:18.907Z,15.70
2018-10-07T00:45:47.704Z,15.60
2018-10-07T00:48:16.743Z,15.60
2018-10-07T00:50:45.188Z,15.60
2018-10-07T00:53:13.703Z,15.50
2018-10-07T00:55:42.476Z,15.40
2018-10-07T00:58:11.267Z,15.40
2018-10-07T01:00:39.801Z,15.40
2018-10-07T01:03:08.827Z,15.40
2018-10-07T01:05:37.593Z,15.40
2018-10-07T01:08:06.048Z,15.40
2018-10-07T01:10:34.531Z,15.40
2018-10-07T01:13:03.288Z,15.50
2018-10-07T01:15:31.735Z,15.40
2018-10-07T01:18:00.550Z,15.40
2018-10-07T01:20:28.642Z,15.50
2018-10-07T01:22:57.722Z,15.40
2018-10-07T01:25:26.478Z,15.50
2018-10-07T01:27:55.227Z,15.40
2018-10-07T01:30:24.163Z,15.40
2018-10-07T01:32:54.463Z,15.40
2018-10-07T01:35:23.343Z,15.40
2018-10-07T01:37:52.127Z,15.40
2018-10-07T01:40:20.582Z,15.30
2018-10-07T01:42:49.350Z,15.40
2018-10-07T01:45:18.131Z,15.40
2018-10-07T01:47:46.577Z,15.30
2018-10-07T01:50:15.318Z,15.30
2018-10-07T01:52:44.142Z,15.20
2018-10-07T01:55:12.863Z,15.20
2018-10-07T01:57:41.644Z,15.20
2018-10-07T02:00:10.388Z,15.10
2018-10-07T02:02:39.482Z,15.10
2018-10-07T02:05:08.208Z,15.00
2018-10-07T02:07:37.447Z,15.00
2018-10-07T02:10:06.148Z,15.00
2018-10-07T02:12:35.179Z,14.90
2018-10-07T02:15:03.544Z,14.80
2018-10-07T02:17:32.575Z,14.80
2018-10-07T02:20:01.616Z,14.80
2018-10-07T02:22:30.569Z,14.80
2018-10-07T02:24:59.637Z,14.70
2018-10-07T02:27:28.640Z,14.70
2018-10-07T02:29:57.317Z,14.70
2018-10-07T02:32:26.034Z,14.70
2018-10-07T02:34:55.093Z,14.70
2018-10-07T02:37:24.119Z,14.60
2018-10-07T02:39:53.229Z,14.70
2018-10-07T02:42:22.279Z,14.70
2018-10-07T02:44:51.341Z,14.80
2018-10-07T02:47:20.399Z,14.80
2018-10-07T02:49:49.431Z,14.70
2018-10-07T02:52:23.298Z,14.70
2018-10-07T02:54:52.015Z,14.70
2018-10-07T02:57:20.891Z,14.60
2018-10-07T02:59:49.333Z,14.50
2018-10-07T03:02:18.282Z,14.40
2018-10-07T03:04:46.993Z,14.40
2018-10-07T03:07:15.523Z,14.30
2018-10-07T03:09:44.567Z,14.30
2018-10-07T03:12:13.242Z,14.30
2018-10-07T03:14:41.621Z,14.30
2018-10-07T03:17:10.350Z,14.30
2018-10-07T03:19:39.043Z,14.30
2018-10-07T03:22:07.775Z,14.20
2018-10-07T03:24:36.785Z,14.20
2018-10-07T03:27:05.477Z,14.20
2018-10-07T03:29:34.593Z,14.20
2018-10-07T03:32:03.829Z,14.20
2018-10-07T03:34:32.878Z,14.20
2018-10-07T03:37:01.884Z,14.20
2018-10-07T03:39:30.983Z,14.10
2018-10-07T03:42:00.094Z,14.10
2018-10-07T03:44:29.186Z,14.10
2018-10-07T03:46:58.298Z,14.00
2018-10-07T03:49:27.429Z,14.00
2018-10-07T03:51:56.996Z,14.00
2018-10-07T03:54:26.858Z,14.00
2018-10-07T03:56:56.522Z,14.00
2018-10-07T03:59:25.770Z,14.00
2018-10-07T04:01:54.870Z,14.00
2018-10-07T04:04:23.330Z,14.00
2018-10-07T04:06:51.780Z,14.00
2018-10-07T04:09:21.028Z,14.00
2018-10-07T04:11:50.103Z,14.00
2018-10-07T04:14:18.835Z,14.00
2018-10-07T04:16:47.559Z,14.00
2018-10-07T04:19:16.596Z,14.00
2018-10-07T04:21:52.023Z,14.00
2018-10-07T04:24:20.740Z,14.00
2018-10-07T04:26:49.542Z,14.00
2018-10-07T04:29:18.566Z,14.00
2018-10-07T04:31:47.299Z,14.00
2018-10-07T04:34:16.106Z,14.00
2018-10-07T04:36:45.156Z,13.90
2018-10-07T04:39:14.069Z,13.90
2018-10-07T04:41:43.989Z,13.90
2018-10-07T04:44:13.057Z,13.90
2018-10-07T04:46:41.508Z,13.90
2018-10-07T04:49:10.563Z,13.90
2018-10-07T04:51:39.310Z,13.80
2018-10-07T04:54:08.463Z,13.80
2018-10-07T04:56:37.531Z,13.80
2018-10-07T04:59:06.409Z,13.80
2018-10-07T05:01:35.180Z,13.80
2018-10-07T05:04:03.946Z,13.80
2018-10-07T05:06:33.840Z,13.80
2018-10-07T05:09:04.692Z,13.90
2018-10-07T05:11:33.115Z,14.00
2018-10-07T05:14:01.534Z,14.10
2018-10-07T05:16:34.615Z,14.20
2018-10-07T05:19:03.306Z,14.20
2018-10-07T05:21:31.678Z,14.30
2018-10-07T05:24:00.588Z,14.40
2018-10-07T05:26:29.549Z,14.50
2018-10-07T05:28:57.937Z,14.50
2018-10-07T05:31:26.671Z,14.50
2018-10-07T05:33:55.710Z,14.50
2018-10-07T05:36:24.510Z,14.50
2018-10-07T05:38:53.292Z,14.50
2018-10-07T05:41:22.062Z,14.50
2018-10-07T05:43:50.455Z,14.50
2018-10-07T05:46:18.868Z,14.50
2018-10-07T05:48:47.921Z,14.50
2018-10-07T05:51:17.031Z,14.50
2018-10-07T05:53:45.752Z,14.50
2018-10-07T05:56:14.513Z,14.50
2018-10-07T05:58:42.975Z,14.50
2018-10-07T06:01:45.896Z,14.70
2018-10-07T06:04:18.335Z,14.70
2018-10-07T06:06:47.018Z,14.80
2018-10-07T06:09:18.549Z,14.90
2018-10-07T06:11:46.794Z,14.90
2018-10-07T06:14:23.622Z,15.00
2018-10-07T06:16:51.914Z,15.10
2018-10-07T06:19:20.725Z,15.10
2018-10-07T06:21:49.199Z,15.10
2018-10-07T06:24:18.334Z,15.10
2018-10-07T06:26:47.075Z,15.10
2018-10-07T06:29:15.786Z,15.10
2018-10-07T06:31:45.167Z,15.10
2018-10-07T06:34:13.661Z,15.20
2018-10-07T06:36:42.394Z,15.10
2018-10-07T06:39:10.855Z,15.10
2018-10-07T06:41:39.441Z,15.10
2018-10-07T06:44:07.617Z,15.00
2018-10-07T06:46:35.750Z,14.90
2018-10-07T06:49:05.062Z,14.90
2018-10-07T06:51:33.338Z,14.80
2018-10-07T06:54:01.938Z,14.90
2018-10-07T06:56:30.735Z,14.80
2018-10-07T06:58:59.678Z,14.80
2018-10-07T07:01:28.784Z,14.80
2018-10-07T07:03:57.883Z,14.70
2018-10-07T07:06:26.823Z,14.70
2018-10-07T07:08:55.920Z,14.70
2018-10-07T07:11:25.016Z,14.70
2018-10-07T07:13:53.823Z,14.60
2018-10-07T07:16:23.391Z,14.60
2018-10-07T07:18:52.160Z,14.60
2018-10-07T07:21:21.214Z,14.60
2018-10-07T07:23:50.341Z,14.70
2018-10-07T07:26:19.435Z,14.80
2018-10-07T07:28:48.841Z,14.80
2018-10-07T07:31:17.859Z,14.80
2018-10-07T07:33:46.975Z,14.70
2018-10-07T07:36:16.065Z,14.70
2018-10-07T07:38:45.169Z,14.60
2018-10-07T07:41:14.225Z,14.50
2018-10-07T07:43:42.957Z,14.60
2018-10-07T07:46:11.353Z,14.50
2018-10-07T07:48:40.417Z,14.50
2018-10-07T07:51:08.817Z,14.40
2018-10-07T07:53:38.061Z,14.30
2018-10-07T07:56:07.201Z,14.10
2018-10-07T07:58:36.557Z,14.10
2018-10-07T08:01:05.647Z,14.00
2018-10-07T08:03:34.762Z,13.90
2018-10-07T08:06:03.160Z,13.80
2018-10-07T08:08:32.206Z,13.60
2018-10-07T08:11:00.931Z,13.50
2018-10-07T08:13:29.963Z,13.50
2018-10-07T08:15:58.997Z,13.60
2018-10-07T08:18:27.784Z,13.50
2018-10-07T08:20:56.567Z,13.50
2018-10-07T08:23:25.307Z,13.60
2018-10-07T08:25:54.204Z,13.90
2018-10-07T08:28:23.370Z,14.30
2018-10-07T08:30:52.114Z,14.40
2018-10-07T08:33:22.267Z,14.50
2018-10-07T08:35:51.097Z,14.30
2018-10-07T08:38:19.796Z,14.40
2018-10-07T08:40:52.146Z,14.30
2018-10-07T08:43:21.255Z,14.10
2018-10-07T08:45:50.308Z,14.00
2018-10-07T08:48:19.354Z,14.00
2018-10-07T08:50:48.408Z,14.00
2018-10-07T08:53:17.127Z,13.90
2018-10-07T08:55:45.875Z,14.00
2018-10-07T08:58:15.286Z,14.00
2018-10-07T09:00:44.037Z,13.90
2018-10-07T09:03:12.402Z,13.90
2018-10-07T09:05:41.527Z,14.10
2018-10-07T09:08:10.631Z,14.00
2018-10-07T09:10:39.380Z,14.00
2018-10-07T09:13:08.416Z,13.80
2018-10-07T09:15:37.156Z,13.70
2018-10-07T09:18:05.632Z,13.80
2018-10-07T09:20:34.469Z,13.60
2018-10-07T09:23:03.564Z,13.70
2018-10-07T09:25:31.960Z,13.80
2018-10-07T09:28:00.395Z,14.10
2018-10-07T09:30:29.552Z,14.20
2018-10-07T09:32:58.387Z,14.30
2018-10-07T09:35:27.596Z,14.40
2018-10-07T09:37:56.604Z,14.50
2018-10-07T09:40:25.786Z,14.50
2018-10-07T09:42:54.533Z,14.40
2018-10-07T09:45:22.970Z,14.40
2018-10-07T09:47:51.600Z,14.30
2018-10-07T09:50:20.031Z,14.10
2018-10-07T09:52:48.779Z,13.90
2018-10-07T09:55:17.864Z,13.90
2018-10-07T09:57:46.580Z,13.90
2018-10-07T10:00:19.867Z,13.90
2018-10-07T10:02:48.621Z,13.70
2018-10-07T10:05:17.659Z,13.70
2018-10-07T10:07:46.722Z,13.70
2018-10-07T10:10:15.791Z,13.50
2018-10-07T10:12:44.482Z,13.40
2018-10-07T10:15:13.563Z,13.40
2018-10-07T10:17:45.961Z,13.40
2018-10-07T10:20:15.914Z,13.50
2018-10-07T10:23:54.805Z,13.40
2018-10-07T10:26:29.637Z,13.60
2018-10-07T10:29:19.912Z,13.60
2018-10-07T10:32:00.173Z,13.70
2018-10-07T10:36:48.043Z,13.80
2018-10-07T10:39:27.941Z,13.60
2018-10-07T10:42:01.317Z,13.40
2018-10-07T10:44:36.422Z,13.50
2018-10-07T10:47:16.565Z,13.40
2018-10-07T10:49:52.152Z,13.40
2018-10-07T10:52:30.347Z,13.30
2018-10-07T10:56:08.911Z,13.20
2018-10-07T10:58:58.882Z,13.20
2018-10-07T11:01:32.105Z,13.10
2018-10-07T11:04:09.442Z,13.20
2018-10-07T11:08:52.696Z,13.10
2018-10-07T11:11:39.341Z,13.30
2018-10-07T11:16:26.206Z,13.00
2018-10-07T11:19:02.790Z,12.90
2018-10-07T11:23:49.380Z,12.90
2018-10-07T11:26:21.346Z,13.00
2018-10-07T11:29:00.515Z,13.30
2018-10-07T11:31:43.396Z,13.40
2018-10-07T11:34:25.263Z,13.50
2018-10-07T11:37:05.287Z,13.40
2018-10-07T11:40:14.940Z,13.40
2018-10-07T11:42:48.318Z,13.40
2018-10-07T11:45:25.403Z,13.40
2018-10-07T11:48:05.283Z,13.40
2018-10-07T11:50:38.876Z,13.60
2018-10-07T11:53:26.175Z,13.70
2018-10-07T11:55:54.920Z,13.70
2018-10-07T11:58:23.951Z,13.70
2018-10-07T12:00:52.676Z,13.90
2018-10-07T12:03:21.738Z,13.90
2018-10-07T12:05:50.728Z,14.00
2018-10-07T12:08:19.851Z,14.10
2018-10-07T12:10:48.901Z,13.80
2018-10-07T12:13:17.895Z,13.80
2018-10-07T12:15:46.608Z,13.40
2018-10-07T12:18:15.383Z,13.30
2018-10-07T12:20:44.506Z,13.40
2018-10-07T12:23:13.250Z,13.70
2018-10-07T12:25:42.317Z,14.00
2018-10-07T12:28:11.427Z,14.30
2018-10-07T12:30:40.450Z,14.60
2018-10-07T12:33:09.117Z,14.50
2018-10-07T12:35:38.217Z,14.40
2018-10-07T12:38:06.702Z,14.20
2018-10-07T12:40:35.471Z,14.20
2018-10-07T12:43:03.827Z,14.00
2018-10-07T12:45:32.977Z,13.70
2018-10-07T12:48:02.404Z,13.80
2018-10-07T12:50:31.397Z,13.90
2018-10-07T12:53:02.096Z,13.80
2018-10-07T12:55:30.836Z,13.80
2018-10-07T12:58:00.007Z,13.80
2018-10-07T13:00:28.733Z,14.00
2018-10-07T13:02:57.767Z,14.20
2018-10-07T13:05:26.786Z,14.40
2018-10-07T13:07:55.575Z,14.20
2018-10-07T13:10:24.658Z,14.40
2018-10-07T13:12:52.725Z,15.00
2018-10-07T13:15:21.474Z,15.70
2018-10-07T13:17:49.915Z,16.50
2018-10-07T13:20:18.235Z,16.40
2018-10-07T13:22:46.726Z,16.20
2018-10-07T13:25:15.539Z,15.50
2018-10-07T13:27:44.297Z,14.90
2018-10-07T13:30:12.746Z,14.70
2018-10-07T13:32:41.203Z,14.70
2018-10-07T13:35:09.639Z,14.70
2018-10-07T13:37:38.089Z,14.80
2018-10-07T13:40:06.666Z,14.70
2018-10-07T13:42:35.496Z,14.70
2018-10-07T13:45:03.609Z,14.60
2018-10-07T13:47:31.734Z,14.50
2018-10-07T13:50:00.811Z,14.40
2018-10-07T13:52:29.864Z,14.30
2018-10-07T13:54:58.920Z,14.20
2018-10-07T13:57:28.023Z,14.20
2018-10-07T13:59:57.130Z,14.10
2018-10-07T14:02:26.208Z,13.90
2018-10-07T14:04:55.283Z,13.80
2018-10-07T14:07:24.323Z,14.00
2018-10-07T14:09:53.396Z,14.00
2018-10-07T14:12:22.483Z,14.00
2018-10-07T14:14:51.258Z,14.00
2018-10-07T14:17:20.355Z,14.10
2018-10-07T14:19:48.719Z,14.20
2018-10-07T14:22:17.725Z,14.10
2018-10-07T14:24:46.447Z,14.10
2018-10-07T14:27:15.191Z,14.20
2018-10-07T14:29:44.241Z,14.30
2018-10-07T14:32:13.263Z,14.20
2018-10-07T14:34:42.463Z,14.20
2018-10-07T14:37:11.146Z,14.00
2018-10-07T14:39:40.199Z,13.90
2018-10-07T14:42:09.278Z,13.90
2018-10-07T14:44:38.095Z,14.00
2018-10-07T14:47:07.098Z,14.00
2018-10-07T14:49:35.897Z,14.00
2018-10-07T14:52:04.561Z,14.10
2018-10-07T14:54:33.253Z,14.20
2018-10-07T14:57:02.381Z,14.20
2018-10-07T14:59:31.414Z,14.20
2018-10-07T15:02:00.465Z,14.30
2018-10-07T15:04:29.523Z,14.20
2018-10-07T15:06:58.242Z,14.20
2018-10-07T15:09:26.992Z,14.20
2018-10-07T15:11:56.218Z,14.00
2018-10-07T15:14:25.273Z,14.10
2018-10-07T15:16:54.014Z,14.00
2018-10-07T15:19:22.707Z,14.00
2018-10-07T15:21:51.909Z,13.90
2018-10-07T15:24:20.619Z,13.90
2018-10-07T15:26:49.262Z,14.00
2018-10-07T15:29:18.351Z,14.00
2018-10-07T15:31:47.510Z,14.00
2018-10-07T15:34:16.425Z,14.30
2018-10-07T15:36:45.470Z,14.40
2018-10-07T15:39:14.000Z,14.80
2018-10-07T15:41:42.758Z,15.10
2018-10-07T15:44:11.626Z,15.50
2018-10-07T15:46:40.357Z,15.80
2018-10-07T15:49:08.755Z,15.80
2018-10-07T15:51:37.502Z,15.60
2018-10-07T15:54:06.000Z,15.30
2018-10-07T15:56:34.787Z,15.00
2018-10-07T15:59:04.212Z,14.90
2018-10-07T16:01:32.693Z,15.40
2018-10-07T16:04:01.098Z,15.60
2018-10-07T16:06:29.197Z,15.70
2018-10-07T16:08:57.999Z,15.60
2018-10-07T16:11:26.220Z,15.30
2018-10-07T16:13:55.037Z,14.70
2018-10-07T16:16:24.070Z,14.30
2018-10-07T16:18:52.776Z,14.00
2018-10-07T16:21:21.844Z,13.80
2018-10-07T16:23:50.543Z,13.50
2018-10-07T16:26:19.237Z,13.40
2018-10-07T16:28:47.958Z,13.20
2018-10-07T16:31:16.963Z,13.00
2018-10-07T16:33:45.324Z,12.90
2018-10-07T16:36:14.395Z,12.80
2018-10-07T16:38:42.756Z,12.70
2018-10-07T16:41:11.863Z,12.60
2018-10-07T16:43:40.926Z,12.50
2018-10-07T16:46:09.640Z,12.50
2018-10-07T16:48:38.368Z,12.40
2018-10-07T16:51:06.727Z,12.30
2018-10-07T16:53:35.729Z,12.20
2018-10-07T16:56:04.875Z,12.20
2018-10-07T16:58:34.088Z,12.10
2018-10-07T17:01:02.800Z,12.10
2018-10-07T17:03:32.204Z,12.10
2018-10-07T17:06:00.902Z,12.00
2018-10-07T17:08:29.565Z,11.90
2018-10-07T17:10:58.273Z,11.90
2018-10-07T17:13:27.415Z,11.80
2018-10-07T17:15:56.569Z,11.80
2018-10-07T17:18:25.325Z,11.80
2018-10-07T17:20:55.922Z,11.70
2018-10-07T17:23:25.082Z,11.70
2018-10-07T17:25:54.125Z,11.70
2018-10-07T17:28:23.173Z,11.70
2018-10-07T17:30:52.206Z,11.80
2018-10-07T17:33:21.072Z,11.80
2018-10-07T17:35:49.747Z,11.70
2018-10-07T17:38:18.745Z,11.70
2018-10-07T17:40:47.733Z,11.80
2018-10-07T17:43:16.469Z,11.80
2018-10-07T17:45:45.446Z,11.70
2018-10-07T17:48:14.657Z,11.70
2018-10-07T17:50:43.760Z,11.70
2018-10-07T17:53:12.854Z,11.60
2018-10-07T17:55:41.561Z,11.60
2018-10-07T17:58:10.550Z,11.60
2018-10-07T18:00:39.845Z,11.50
2018-10-07T18:03:08.953Z,11.50
2018-10-07T18:05:38.152Z,11.50
2018-10-07T18:08:07.074Z,11.50
2018-10-07T18:10:36.122Z,11.50
2018-10-07T18:13:05.132Z,11.50
2018-10-07T18:15:34.240Z,11.50
2018-10-07T18:18:03.664Z,11.40
2018-10-07T18:20:32.358Z,11.40
2018-10-07T18:23:01.408Z,11.40
2018-10-07T18:25:30.474Z,11.30
2018-10-07T18:27:59.551Z,11.30
2018-10-07T18:30:28.590Z,11.20
2018-10-07T18:32:57.661Z,11.20
2018-10-07T18:35:26.373Z,11.20
2018-10-07T18:37:55.438Z,11.10
2018-10-07T18:40:24.180Z,11.10
2018-10-07T18:42:53.247Z,11.10
2018-10-07T18:45:22.423Z,11.10
2018-10-07T18:47:51.154Z,11.10
2018-10-07T18:50:20.012Z,11.10
2018-10-07T18:52:48.969Z,11.10
2018-10-07T18:55:18.055Z,11.00
2018-10-07T18:57:46.739Z,10.90
2018-10-07T19:00:15.443Z,10.90
2018-10-07T19:02:44.708Z,10.90
2018-10-07T19:05:13.753Z,10.80
2018-10-07T19:07:42.530Z,10.80
2018-10-07T19:10:11.569Z,10.80
2018-10-07T19:12:40.264Z,10.70
2018-10-07T19:15:09.335Z,10.70
2018-10-07T19:17:38.396Z,10.70
2018-10-07T19:20:06.935Z,10.60
2018-10-07T19:22:36.051Z,10.60
2018-10-07T19:25:04.760Z,10.50
2018-10-07T19:27:33.453Z,10.50
2018-10-07T19:30:02.616Z,10.40
2018-10-07T19:32:31.342Z,10.30
2018-10-07T19:35:00.401Z,10.30
2018-10-07T19:37:29.736Z,10.20
2018-10-07T19:40:00.167Z,10.20
2018-10-07T19:42:29.195Z,10.20
2018-10-07T19:44:57.501Z,10.10
2018-10-07T19:47:26.203Z,10.10
2018-10-07T19:49:55.221Z,10.00
2018-10-07T19:52:24.189Z,10.00
2018-10-07T19:54:53.338Z,10.00
2018-10-07T19:57:22.385Z,9.90
2018-10-07T19:59:51.168Z,9.80
2018-10-07T20:02:20.245Z,9.80
2018-10-07T20:04:49.224Z,9.80
2018-10-07T20:07:18.272Z,9.70
2018-10-07T20:09:47.269Z,9.70
2018-10-07T20:12:16.266Z,9.80
2018-10-07T20:14:44.975Z,9.70
2018-10-07T20:17:14.114Z,9.70
2018-10-07T20:19:43.131Z,9.70
2018-10-07T20:22:15.020Z,9.70
2018-10-07T20:24:43.442Z,9.70
2018-10-07T20:27:12.235Z,9.70
2018-10-07T20:29:41.398Z,9.70
2018-10-07T20:32:10.478Z,9.60
2018-10-07T20:34:39.470Z,9.50
2018-10-07T20:37:08.147Z,9.40
2018-10-07T20:39:36.821Z,9.30
2018-10-07T20:42:05.522Z,9.30
2018-10-07T20:44:34.679Z,9.30
2018-10-07T20:47:03.700Z,9.40
2018-10-07T20:49:32.681Z,9.40
2018-10-07T20:52:01.747Z,9.40
2018-10-07T20:54:30.972Z,9.40
2018-10-07T20:57:00.186Z,9.30
2018-10-07T20:59:29.310Z,9.30
2018-10-07T21:01:58.362Z,9.30
2018-10-07T21:04:27.451Z,9.30
2018-10-07T21:06:56.805Z,9.20
2018-10-07T21:09:25.832Z,9.20
2018-10-07T21:11:54.551Z,9.10
2018-10-07T21:14:23.437Z,9.10
2018-10-07T21:16:52.503Z,9.00
2018-10-07T21:19:21.690Z,8.90
2018-10-07T21:21:50.375Z,8.90
2018-10-07T21:24:19.115Z,8.90
2018-10-07T21:26:47.698Z,8.90
2018-10-07T21:29:16.483Z,8.80
2018-10-07T21:31:45.236Z,8.80
2018-10-07T21:34:13.955Z,8.80
2018-10-07T21:36:43.026Z,8.70
2018-10-07T21:39:12.157Z,8.60
2018-10-07T21:41:41.244Z,8.60
2018-10-07T21:44:10.874Z,8.60
2018-10-07T21:46:40.020Z,8.60
2018-10-07T21:49:08.960Z,8.60
2018-10-07T21:51:37.957Z,8.70
2018-10-07T21:54:07.601Z,8.60
2018-10-07T21:56:37.135Z,8.60
2018-10-07T21:59:06.449Z,8.50
2018-10-07T22:01:35.189Z,8.50
2018-10-07T22:04:03.923Z,8.40
2018-10-07T22:06:32.582Z,8.30
2018-10-07T22:09:01.327Z,8.20
2018-10-07T22:11:30.372Z,8.20
2018-10-07T22:13:59.067Z,8.20
2018-10-07T22:16:28.102Z,8.00
2018-10-07T22:18:57.098Z,8.00
2018-10-07T22:21:25.799Z,8.00
2018-10-07T22:23:54.839Z,8.00
2018-10-07T22:26:23.919Z,7.90
2018-10-07T22:28:52.572Z,7.90
2018-10-07T22:31:21.575Z,7.80
2018-10-07T22:33:50.616Z,7.70
2018-10-07T22:36:19.127Z,7.60
2018-10-07T22:38:47.980Z,7.50
2018-10-07T22:41:16.621Z,7.50
2018-10-07T22:43:45.624Z,7.50
2018-10-07T22:46:14.684Z,7.50
2018-10-07T22:48:43.715Z,7.50
2018-10-07T22:51:12.749Z,7.50
2018-10-07T22:53:41.410Z,7.60
2018-10-07T22:56:10.463Z,7.60
2018-10-07T22:58:39.528Z,7.50
2018-10-07T23:01:07.860Z,7.40
2018-10-07T23:03:37.051Z,7.50
2018-10-07T23:06:05.697Z,7.40
2018-10-07T23:08:34.398Z,7.40
2018-10-07T23:11:03.191Z,7.40
2018-10-07T23:13:32.237Z,7.50
2018-10-07T23:16:01.323Z,7.50
2018-10-07T23:18:30.464Z,7.40
2018-10-07T23:20:59.147Z,7.40
2018-10-07T23:23:28.147Z,7.30
2018-10-07T23:25:56.815Z,7.30
2018-10-07T23:28:25.521Z,7.30
2018-10-07T23:30:54.731Z,7.30
2018-10-07T23:33:23.777Z,7.40
2018-10-07T23:35:52.830Z,7.40
2018-10-07T23:38:21.873Z,7.30
2018-10-07T23:40:52.440Z,7.40
2018-10-07T23:43:21.138Z,7.30
2018-10-07T23:45:50.165Z,7.20
2018-10-07T23:48:19.362Z,7.20
2018-10-07T23:50:48.430Z,7.20
2018-10-07T23:53:17.500Z,7.20
2018-10-07T23:55:46.220Z,7.10
2018-10-07T23:58:15.358Z,7.10
